• Join FlightAware (Why Join?)
  • Login
  • US Flag 
06:42AM EDT


 

Airport Tracker/Info


-or-


 

Live Flight TrackerFlight Track Log ✈ DAL268 ✈ 28-Jun-2013 ✈ KJFK - LLBG / TLV

Flight Track Log - Related Links

Times and Time Zones

All times are in EDT time to prevent confusion due to time zone crossing. See the DAL268 flight status page for this flight to view local times or setup timezone preferences in your user account.

Time Position Orientation Groundspeed Altitude Reporting Facility
EDT Latitude Longitude Course Direction KTS MPH feet Rate Location/Type
12:09AM 40.6370 -73.7800 North  Level FlightAware
12:11AM 40.6380 -73.7790 37° Northeast 2 2 60 Level FlightAware
12:12AM 40.6370 -73.7790 180° South 10 12 60 Level FlightAware
12:13AM 40.6360 -73.7790 180° South 60 Level FlightAware
12:16AM 40.5123 -73.4079 123° Southeast  Level FlightAware Approximate
12:17AM 40.4615 -73.2406 105° East  Level FlightAware Approximate
12:18AM 40.4034 -73.0745 119° Southeast  Level FlightAware Approximate
12:19AM 40.4000 -72.8999 75° East  Level FlightAware Approximate
12:20AM 40.4333 -72.7222 90° East  Level FlightAware Approximate
12:21AM 40.4719 -72.5468 79° East  Level FlightAware Approximate
12:22AM 40.5167 -72.3748 90° East  Level FlightAware Approximate
12:23AM 40.5467 -72.1969 72° East  Level FlightAware Approximate
12:24AM 40.5905 -72.0217 72° East  Level FlightAware Approximate
12:25AM 40.6290 -73.7710 143° Southeast 15 17  Level FlightAware
12:26AM 40.6290 -73.7730 270° West 24 28 600 Level FlightAware
12:26AM 40.6380 -73.7940 299° West 1,200 Level FlightAware
12:27AM 40.6510 -73.8250 299° West 192 221 1,400 2,160 Climbing FlightAware
12:27AM 40.6430 -73.8590 253° West 216 249 2,200 1,440 Climbing FlightAware
12:28AM 40.6220 -73.8850 223° Southwest 241 277 2,800 1,200 Climbing FlightAware
12:28AM 40.6040 -73.8950 203° Southwest 259 298 3,100 1,200 Climbing FlightAware
12:28AM 40.5950 -73.8960 185° South 267 307 3,300 1,860 Climbing FlightAware
12:29AM 40.5690 -73.8870 165° South 285 328 4,000 2,340 Climbing FlightAware
12:29AM 40.5560 -73.8760 147° Southeast 287 330 4,600 2,040 Climbing FlightAware
12:29AM 40.5323 -73.8231 121° Southeast 305 351 5,600 1,860 Climbing FlightAware ADS-B
12:30AM 40.5278 -73.7913 101° East 308 354 6,200 2,280 Climbing FlightAware ADS-B
12:30AM 40.5277 -73.7836 91° East 319 367 6,400 2,520 Climbing FlightAware ADS-B
12:30AM 40.5278 -73.7776 89° East 320 368 6,500 2,220 Climbing FlightAware ADS-B
12:30AM 40.5282 -73.7679 87° East 324 373 6,700 2,280 Climbing FlightAware ADS-B
12:30AM 40.5295 -73.7521 84° East 326 375 7,000 2,460 Climbing FlightAware ADS-B
12:30AM 40.5341 -73.7206 79° East 331 381 7,700 2,400 Climbing FlightAware ADS-B
12:30AM 40.5364 -73.7088 76° East 337 388 7,900 2,160 Climbing FlightAware ADS-B
12:31AM 40.5433 -73.6770 74° East 342 394 8,500 2,220 Climbing FlightAware ADS-B
12:31AM 40.5507 -73.6448 73° East 346 398 9,100 2,340 Climbing FlightAware ADS-B
12:31AM 40.5584 -73.6103 74° East 350 403 9,800 2,340 Climbing FlightAware ADS-B
12:32AM 40.5734 -73.5488 72° East 357 411 11,000 1,860 Climbing FlightAware ADS-B
12:32AM 40.5831 -73.5040 74° East 372 428 11,400 780 Climbing FlightAware ADS-B
12:32AM 40.5850 -73.4835 83° East 380 437 11,400  Level FlightAware ADS-B
12:32AM 40.5851 -73.4695 89° East 387 445 11,400  Level FlightAware ADS-B
12:32AM 40.5838 -73.4528 96° East 394 453 11,400  Level FlightAware ADS-B
12:33AM 40.5795 -73.4269 102° East 402 463 11,400  Level FlightAware ADS-B
12:33AM 40.5736 -73.4088 113° Southeast 403 464 11,400 300 Level FlightAware ADS-B
12:33AM 40.5473 -73.3448 118° Southeast 401 461 11,600 1,440 Climbing FlightAware ADS-B
12:34AM 40.5135 -73.2686 120° Southeast 405 466 13,000 2,340 Climbing FlightAware ADS-B
12:34AM 40.4848 -73.2043 120° Southeast 411 473 14,200 2,340 Climbing FlightAware ADS-B
12:35AM 40.4551 -73.1371 120° Southeast 417 480 15,400 2,220 Climbing FlightAware ADS-B
12:35AM 40.4248 -73.0688 120° Southeast 422 486 16,500 2,160 Climbing FlightAware ADS-B
12:36AM 40.4050 -73.0215 119° Southeast 427 491 17,300 2,040 Climbing FlightAware ADS-B
12:36AM 40.4002 -73.0015 107° East 434 499 17,500 1,500 Climbing FlightAware ADS-B
12:36AM 40.3971 -72.9805 101° East 439 505 17,700 1,740 Climbing FlightAware ADS-B
12:36AM 40.3962 -72.9565 93° East 447 514 18,000 1,980 Climbing FlightAware ADS-B
12:36AM 40.3979 -72.9347 84° East 453 521 18,300 1,320 Climbing FlightAware ADS-B
12:37AM 40.4219 -72.8241 74° East 464 534 19,100 840 Climbing FlightAware ADS-B
12:38AM 40.4670 -72.6260 73° East 476 548 20,000 1,140 Climbing FlightAware
12:39AM 40.5190 -72.4020 73° East 493 567 22,100 1,500 Climbing FlightAware
12:40AM 40.5620 -72.2960 62° Northeast 510 587 23,000 1,980 Climbing FlightAware
12:41AM 40.6190 -72.1790 57° Northeast 492 566 25,000 1,980 Climbing FlightAware
12:41AM 40.6602 -72.0950 57° Northeast 501 577 25,600 960 Climbing FlightAware ADS-B
12:42AM 40.7213 -71.9703 57° Northeast 513 590 26,300 960 Climbing FlightAware ADS-B
12:43AM 40.7770 -71.8550 57° Northeast 527 606 27,100 1,080 Climbing FlightAware
12:43AM 40.7999 -71.8091 57° Northeast 526 605 27,400 780 Climbing FlightAware ADS-B
12:44AM 40.8940 -71.6160 57° Northeast 546 628 28,300 540 Climbing FlightAware
12:45AM 40.9690 -71.4620 57° Northeast 557 641 28,600 180 Climbing FlightAware
12:46AM 41.0120 -71.3740 57° Northeast 557 641 28,600 1,500 Level FlightAware
12:47AM 41.0940 -71.2020 58° Northeast 554 638 30,900 1,260 Climbing FlightAware
12:48AM 41.1770 -71.0260 58° Northeast 552 635 31,000  Climbing FlightAware
12:49AM 41.2550 -70.8640 57° Northeast 553 636 31,000  Level FlightAware
12:49AM 41.3110 -70.7450 58° Northeast 554 638 31,000  Level FlightAware
12:50AM 41.3560 -70.6500 58° Northeast 555 639 31,000  Level FlightAware
12:51AM 41.4120 -70.5290 58° Northeast 555 639 31,000  Level FlightAware
12:54AM 41.6510 -70.0140 58° Northeast 31,000  Level FlightAware
12:54AM 41.7160 -69.8710 59° Northeast 535 616 31,000  Level FlightAware
12:56AM 41.7940 -69.6990 59° Northeast 31,000  Level FlightAware
12:56AM 41.8420 -69.5900 59° Northeast 537 618 31,000  Level FlightAware
12:57AM 41.9150 -69.4290 59° Northeast 538 619 31,000  Level FlightAware
12:58AM 41.9950 -69.2500 59° Northeast 542 624 31,000  Level FlightAware
12:59AM 42.0490 -69.1260 60° Northeast 540 621 31,000  Level FlightAware
01:00AM 42.1040 -69.0020 59° Northeast 540 621 31,000  Level FlightAware
01:00AM 42.1530 -68.8920 59° Northeast 541 623 31,000  Level FlightAware
01:01AM 42.2060 -68.7700 60° Northeast 543 625 31,000  Level FlightAware
01:02AM 42.2820 -68.5950 60° Northeast 544 626 31,000  Level FlightAware
01:03AM 42.3480 -68.4460 59° Northeast 545 627 31,000  Level FlightAware
01:04AM 42.4200 -68.2780 60° Northeast 544 626 31,000  Level FlightAware
01:04AM 42.4700 -68.1630 59° Northeast 544 626 31,000  Level FlightAware
01:06AM 42.5750 -67.9169 59° Northeast 536 617 31,000  Level Boston Center
01:07AM 42.6514 -67.7419 59° Northeast 536 617 31,000  Level Boston Center
01:08AM 42.7250 -67.5608 61° Northeast 536 617 31,000  Level Boston Center
01:09AM 42.8008 -67.3850 60° Northeast 541 623 31,000 -60 Level Boston Center
01:10AM 42.8739 -67.2031 61° Northeast 546 628 30,900  Descending Boston Center
01:12AM 43.0966 -67.0395 28° Northeast  Level FlightAware Approximate
01:19AM 43.5911 -65.8513 62° Northeast  Level FlightAware Approximate
01:20AM 43.6563 -65.6775 63° Northeast  Level FlightAware Approximate
01:21AM 43.7212 -65.5032 63° Northeast  Level FlightAware Approximate
01:22AM 43.7859 -65.3286 63° Northeast  Level FlightAware Approximate
01:23AM 43.8503 -65.1535 63° Northeast  Level FlightAware Approximate
01:23AM 43.8500 -64.7480 63° Northeast 550 633 31,000  Level FlightAware
01:24AM 43.9060 -64.6010 62° Northeast 550 633 31,000  Level FlightAware
01:25AM 43.9530 -64.4770 62° Northeast 549 632 31,000  Level FlightAware
01:25AM 44.0100 -64.3240 63° Northeast 547 629 31,000  Level FlightAware
01:26AM 44.0550 -64.2060 62° Northeast 545 627 31,000  Level FlightAware
01:27AM 44.1030 -64.0760 63° Northeast 542 624 31,000  Level FlightAware
01:28AM 44.1680 -63.9000 63° Northeast 541 623 31,000  Level FlightAware
01:28AM 44.2130 -63.7790 63° Northeast 540 621 31,000  Level FlightAware
01:29AM 44.2650 -63.6360 63° Northeast 543 625 31,000  Level FlightAware
01:30AM 44.3090 -63.5170 63° Northeast 547 629 31,000  Level FlightAware
01:30AM 44.3570 -63.3840 63° Northeast 550 633 31,000  Level FlightAware
01:31AM 44.4100 -63.2360 63° Northeast 550 633 31,000  Level FlightAware
01:32AM 44.4600 -63.0990 63° Northeast 550 633 31,000  Level FlightAware
01:33AM 44.5030 -62.9750 64° Northeast 549 632 31,000  Level FlightAware
01:33AM 44.5440 -62.8590 64° Northeast 550 633 31,000  Level FlightAware
01:34AM 44.5780 -62.7610 64° Northeast 550 633 31,000  Level FlightAware
01:35AM 44.6350 -62.5970 64° Northeast 550 633 31,000  Level FlightAware
01:36AM 44.6920 -62.4330 64° Northeast 550 633 31,000  Level FlightAware
01:36AM 44.7250 -62.3370 64° Northeast 550 633 31,000  Level FlightAware
01:37AM 44.7700 -62.2080 64° Northeast 550 633 31,000  Level FlightAware
01:38AM 44.8050 -62.1070 64° Northeast 550 633 31,000  Level FlightAware
01:39AM 44.8510 -61.9730 64° Northeast 550 633 31,000  Level FlightAware
01:39AM 44.8850 -61.8740 64° Northeast 550 633 31,000  Level FlightAware
01:40AM 44.9310 -61.7420 64° Northeast 550 633 31,000  Level FlightAware
01:41AM 44.9660 -61.6410 64° Northeast 550 633 31,000  Level FlightAware
01:41AM 45.0100 -61.5140 64° Northeast 550 633 31,000 1,380 Level FlightAware
01:42AM 45.1350 -61.1440 64° Northeast 540 621 33,000 1,440 Climbing FlightAware
01:43AM 45.1830 -61.0000 65° Northeast 538 619 33,000  Level FlightAware
01:43AM 45.2240 -60.8760 65° Northeast 536 617 33,000  Level FlightAware
01:44AM 45.2690 -60.7400 65° Northeast 532 612 33,000  Level FlightAware
01:48AM 45.5260 -59.9430 65° Northeast 529 609 33,000  Level FlightAware
01:49AM 45.5650 -59.8220 65° Northeast 529 609 33,000  Level FlightAware
01:50AM 45.6110 -59.6760 66° East 530 610 33,000  Level FlightAware
01:50AM 45.6510 -59.5480 66° East 532 612 33,000  Level FlightAware
01:51AM 45.6920 -59.4160 66° East 534 615 33,000  Level FlightAware
01:52AM 45.7360 -59.2770 66° East 536 617 33,000  Level FlightAware
01:52AM 45.7730 -59.1570 66° East 536 617 33,000  Level FlightAware
01:53AM 45.8190 -59.0070 66° East 536 617 33,000  Level FlightAware
01:54AM 45.8620 -58.8670 66° East 537 618 33,000  Level FlightAware
01:55AM 45.9040 -58.7300 66° East 538 619 33,000  Level FlightAware
01:55AM 45.9430 -58.5990 67° East 539 620 33,000  Level FlightAware
01:56AM 45.9860 -58.4580 66° East 538 619 33,000  Level FlightAware
01:57AM 46.0260 -58.3230 67° East 539 620 33,000  Level FlightAware
01:57AM 46.0700 -58.1740 67° East 540 621 33,000  Level FlightAware
01:58AM 46.1090 -58.0420 67° East 540 621 33,000  Level FlightAware
01:59AM 46.1520 -57.8960 67° East 540 621 33,000  Level FlightAware
02:03AM 46.3950 -57.0460 67° East 540 621 33,000  Level FlightAware
02:04AM 46.4290 -56.9170 69° East 541 623 33,000  Level FlightAware
02:04AM 46.4660 -56.7780 69° East 541 623 33,000  Level FlightAware
02:05AM 46.5140 -56.5920 69° East 541 623 33,000  Level FlightAware
02:06AM 46.5670 -56.3880 69° East 543 625 33,000  Level FlightAware
02:07AM 46.5890 -56.3060 69° East 543 625 33,000  Level FlightAware
02:07AM 46.6260 -56.1590 70° East 543 625 33,000  Level FlightAware
02:08AM 46.6650 -56.0080 69° East 543 625 33,000  Level FlightAware
02:09AM 46.7040 -55.8540 70° East 544 626 33,000  Level FlightAware
02:10AM 46.7340 -55.7330 70° East 544 626 33,000  Level FlightAware
02:10AM 46.7740 -55.5780 69° East 545 627 33,000  Level FlightAware
02:11AM 46.8120 -55.4230 70° East 545 627 33,000  Level FlightAware
02:12AM 46.8360 -55.3260 70° East 544 626 33,000  Level FlightAware
02:12AM 46.8710 -55.1850 70° East 544 626 33,000  Level FlightAware
02:13AM 46.9080 -55.0330 70° East 543 625 33,000  Level FlightAware
02:14AM 46.9420 -54.8940 70° East 544 626 33,000  Level FlightAware
02:14AM 46.9790 -54.7380 71° East 544 626 33,000  Level FlightAware
02:15AM 47.0120 -54.6020 70° East 545 627 33,000  Level FlightAware
02:16AM 47.0440 -54.4660 71° East 547 629 33,000  Level FlightAware
02:16AM 47.0830 -54.3020 71° East 547 629 33,000  Level FlightAware
02:17AM 47.1170 -54.1580 71° East 547 629 33,000  Level FlightAware
02:18AM 47.1530 -54.0040 71° East 545 627 33,000  Level FlightAware
02:19AM 47.1890 -53.8500 71° East 544 626 33,000  Level FlightAware
02:19AM 47.2220 -53.7030 72° East 545 627 33,000  Level FlightAware
02:20AM 47.2530 -53.5690 71° East 546 628 33,000  Level FlightAware
02:21AM 47.2840 -53.4320 72° East 546 628 33,000  Level FlightAware
02:21AM 47.3230 -53.2590 72° East 546 628 33,000  Level FlightAware
02:22AM 47.3540 -53.1210 72° East 547 629 33,000  Level FlightAware
02:23AM 47.3890 -52.9620 72° East 548 631 33,000  Level FlightAware
02:23AM 47.4210 -52.8200 72° East 548 631 33,000  Level FlightAware
02:24AM 47.4540 -52.6700 72° East 547 629 33,000  Level FlightAware
02:25AM 47.4850 -52.5250 72° East 547 629 33,000  Level FlightAware
02:26AM 47.5190 -52.3720 72° East 546 628 33,000  Level FlightAware
02:26AM 47.5510 -52.2190 73° East 546 628 33,000  Level FlightAware
02:27AM 47.5840 -52.0660 72° East 545 627 33,000  Level FlightAware
02:28AM 47.6150 -51.9200 72° East 545 627 33,000  Level FlightAware
02:28AM 47.6440 -51.7800 73° East 547 629 33,000  Level FlightAware
02:29AM 47.6770 -51.6230 73° East 546 628 33,000  Level FlightAware
02:33AM 47.8130 -50.9630 73° East 545 627 33,000  Level FlightAware
02:33AM 47.8350 -50.8530 73° East 545 627 33,000  Level FlightAware
02:34AM 47.8660 -50.7040 73° East 545 627 33,000  Level FlightAware
02:35AM 47.8890 -50.5900 73° East 545 627 33,000  Level FlightAware
02:36AM 47.9420 -50.3340 73° East 545 627 33,000  Level FlightAware
02:37AM 47.9800 -50.1470 73° East 545 627 33,000  Level FlightAware
02:37AM 48.0000 -50.0000 78° East 560 644 33,000  Level ETMS Enhanced Traffic Management System
02:38AM 48.0030 -50.0340 73° East 545 627 33,000  Level FlightAware
02:39AM 48.0330 -49.8860 73° East 545 627 33,000  Level FlightAware
02:39AM 48.0500 -49.4833 78° East 550 633 33,000  Level Gander Center
02:39AM 48.0550 -49.7820 72° East 545 627 33,000  Level FlightAware
02:40AM 48.0667 -49.2667 83° East 550 633 33,000  Level Gander Center
02:40AM 48.0850 -49.6350 73° East 545 627 33,000  Level FlightAware
02:41AM 48.1167 -49.0333 72° East 550 633 33,000  Level Gander Center
02:42AM 48.1333 -48.8333 83° East 550 633 33,000  Level Gander Center
02:43AM 48.1667 -48.6000 78° East 550 633 33,000  Level Gander Center
02:44AM 48.2000 -48.3833 77° East 550 633 33,000  Level Gander Center
02:45AM 48.2167 -48.1500 84° East 550 633 33,000  Level Gander Center
02:46AM 48.2500 -47.9167 78° East 550 633 33,000  Level Gander Center
02:47AM 48.2833 -47.7000 77° East 550 633 33,000  Level Gander Center
02:49AM 48.3500 -47.2500 77° East 550 633 33,000  Level Gander Center
02:51AM 48.3977 -46.8561 80° East  Level FlightAware Approximate
02:58AM 48.5647 -45.3725 80° East  Level FlightAware Approximate
02:59AM 48.5869 -45.1598 81° East  Level FlightAware Approximate
03:00AM 48.6088 -44.9468 81° East  Level FlightAware Approximate
03:01AM 48.6302 -44.7337 81° East  Level FlightAware Approximate
03:02AM 48.6511 -44.5204 81° East  Level FlightAware Approximate
03:03AM 48.6717 -44.3069 82° East  Level FlightAware Approximate
03:04AM 48.6919 -44.0933 82° East  Level FlightAware Approximate
03:05AM 48.7117 -43.8795 82° East  Level FlightAware Approximate
03:06AM 48.7311 -43.6655 82° East  Level FlightAware Approximate
03:07AM 48.7501 -43.4513 82° East  Level FlightAware Approximate
03:08AM 48.7687 -43.2370 82° East  Level FlightAware Approximate
03:09AM 48.7869 -43.0226 83° East  Level FlightAware Approximate
03:10AM 48.8047 -42.8080 83° East  Level FlightAware Approximate
03:11AM 48.8221 -42.5932 83° East  Level FlightAware Approximate
03:12AM 48.8391 -42.3783 83° East  Level FlightAware Approximate
03:13AM 48.8557 -42.1632 83° East  Level FlightAware Approximate
03:14AM 48.8719 -41.9480 83° East  Level FlightAware Approximate
03:15AM 48.8877 -41.7327 84° East  Level FlightAware Approximate
03:16AM 48.9031 -41.5172 84° East  Level FlightAware Approximate
03:17AM 48.9181 -41.3016 84° East  Level FlightAware Approximate
03:18AM 48.9327 -41.0859 84° East  Level FlightAware Approximate
03:19AM 48.9469 -40.8700 84° East  Level FlightAware Approximate
03:20AM 48.9607 -40.6540 84° East  Level FlightAware Approximate
03:21AM 48.9741 -40.4380 85° East  Level FlightAware Approximate
03:22AM 48.9871 -40.2217 85° East  Level FlightAware Approximate
03:23AM 48.9997 -40.0054 85° East  Level FlightAware Approximate
03:23AM 49.0000 -40.0000 86° East 536 617 33,000  Level ETMS Enhanced Traffic Management System
03:24AM 49.0089 -39.7890 86° East  Level FlightAware Approximate
03:25AM 49.0177 -39.5722 86° East  Level FlightAware Approximate
03:26AM 49.0261 -39.3553 87° East  Level FlightAware Approximate
03:27AM 49.0341 -39.1383 87° East  Level FlightAware Approximate
03:28AM 49.0417 -38.9212 87° East  Level FlightAware Approximate
03:29AM 49.0703 -37.9573 88° East 536 617 33,000  Level FlightAware Transoceanic
03:30AM 49.0759 -37.7300 88° East 536 617 33,000  Level FlightAware Transoceanic
03:31AM 49.0811 -37.5027 88° East 536 617 33,000  Level FlightAware Transoceanic
03:32AM 49.0858 -37.2753 88° East 536 617 33,000  Level FlightAware Transoceanic
03:33AM 49.0900 -37.0479 88° East 536 617 33,000  Level FlightAware Transoceanic
03:34AM 49.0938 -36.8205 89° East 536 617 33,000  Level FlightAware Transoceanic
03:35AM 49.0972 -36.5930 89° East 536 617 33,000  Level FlightAware Transoceanic
03:36AM 49.1001 -36.3655 89° East 536 617 33,000  Level FlightAware Transoceanic
03:37AM 49.1025 -36.1379 89° East 536 617 33,000  Level FlightAware Transoceanic
03:38AM 49.1045 -35.9104 89° East 536 617 33,000  Level FlightAware Transoceanic
03:39AM 49.1061 -35.6828 89° East 536 617 33,000  Level FlightAware Transoceanic
03:40AM 49.1072 -35.4552 90° East 536 617 33,000  Level FlightAware Transoceanic
03:41AM 49.1079 -35.2276 90° East 536 617 33,000  Level FlightAware Transoceanic
03:42AM 49.1081 -35.0000 90° East 536 617 33,000  Level FlightAware Transoceanic
03:43AM 49.1079 -34.7724 90° East 536 617 33,000  Level FlightAware Transoceanic
03:44AM 49.1072 -34.5448 90° East 536 617 33,000  Level FlightAware Transoceanic
03:45AM 49.1061 -34.3172 91° East 536 617 33,000  Level FlightAware Transoceanic
03:46AM 49.1045 -34.0896 91° East 536 617 33,000  Level FlightAware Transoceanic
03:47AM 49.1025 -33.8621 91° East 536 617 33,000  Level FlightAware Transoceanic
03:48AM 49.1001 -33.6345 91° East 536 617 33,000  Level FlightAware Transoceanic
03:49AM 49.0972 -33.4070 91° East 536 617 33,000  Level FlightAware Transoceanic
03:50AM 49.0938 -33.1795 91° East 536 617 33,000  Level FlightAware Transoceanic
03:51AM 49.0900 -32.9521 92° East 536 617 33,000  Level FlightAware Transoceanic
03:52AM 49.0858 -32.7247 92° East 536 617 33,000  Level FlightAware Transoceanic
03:53AM 49.0811 -32.4973 92° East 536 617 33,000  Level FlightAware Transoceanic
03:54AM 49.0759 -32.2700 92° East 536 617 33,000  Level FlightAware Transoceanic
03:55AM 49.0703 -32.0427 92° East 536 617 33,000  Level FlightAware Transoceanic
03:56AM 49.0643 -31.8154 92° East 536 617 33,000  Level FlightAware Transoceanic
03:57AM 49.0578 -31.5883 93° East 536 617 33,000  Level FlightAware Transoceanic
03:58AM 49.0509 -31.3612 93° East 536 617 33,000  Level FlightAware Transoceanic
03:59AM 49.0435 -31.1341 93° East 536 617 33,000  Level FlightAware Transoceanic
04:00AM 49.0357 -30.9071 93° East 536 617 33,000  Level FlightAware Transoceanic
04:01AM 49.0275 -30.6802 93° East 536 617 33,000  Level FlightAware Transoceanic
04:02AM 49.0187 -30.4534 93° East 536 617 33,000  Level FlightAware Transoceanic
04:03AM 49.0096 -30.2267 94° East 536 617 33,000  Level FlightAware Transoceanic
04:04AM 49.0004 -30.0099 94° East  Level FlightAware Approximate
04:05AM 48.9908 -29.7932 94° East  Level FlightAware Approximate
04:06AM 49.0083 -29.8030 86° East  Level FlightAware Approximate
04:07AM 49.0171 -29.5862 86° East  Level FlightAware Approximate
04:08AM 49.0255 -29.3693 87° East  Level FlightAware Approximate
04:08AM 49.0000 -30.0000 86° East 524 603 33,000  Level ETMS Enhanced Traffic Management System
04:09AM 49.0334 -29.1523 87° East  Level FlightAware Approximate
04:10AM 49.0410 -28.9356 87° East  Level FlightAware Approximate
04:11AM 49.0481 -28.7188 87° East  Level FlightAware Approximate
04:12AM 49.0548 -28.5020 87° East  Level FlightAware Approximate
04:13AM 49.0612 -28.2852 87° East  Level FlightAware Approximate
04:14AM 49.0747 -27.7806 88° East 524 603 33,000  Level FlightAware Transoceanic
04:15AM 49.0798 -27.5583 88° East 524 603 33,000  Level FlightAware Transoceanic
04:16AM 49.0846 -27.3360 88° East 524 603 33,000  Level FlightAware Transoceanic
04:17AM 49.0888 -27.1136 88° East 524 603 33,000  Level FlightAware Transoceanic
04:18AM 49.0927 -26.8912 89° East 524 603 33,000  Level FlightAware Transoceanic
04:19AM 49.0961 -26.6688 89° East 524 603 33,000  Level FlightAware Transoceanic
04:20AM 49.0991 -26.4464 89° East 524 603 33,000  Level FlightAware Transoceanic
04:21AM 49.1017 -26.2239 89° East 524 603 33,000  Level FlightAware Transoceanic
04:22AM 49.1038 -26.0014 89° East 524 603 33,000  Level FlightAware Transoceanic
04:23AM 49.1055 -25.7789 89° East 524 603 33,000  Level FlightAware Transoceanic
04:24AM 49.1068 -25.5564 90° East 524 603 33,000  Level FlightAware Transoceanic
04:25AM 49.1077 -25.3338 90° East 524 603 33,000  Level FlightAware Transoceanic
04:26AM 49.1081 -25.1113 90° East 524 603 33,000  Level FlightAware Transoceanic
04:27AM 49.1081 -24.8887 90° East 524 603 33,000  Level FlightAware Transoceanic
04:28AM 49.1077 -24.6662 90° East 524 603 33,000  Level FlightAware Transoceanic
04:29AM 49.1068 -24.4436 90° East 524 603 33,000  Level FlightAware Transoceanic
04:30AM 49.1055 -24.2211 91° East 524 603 33,000  Level FlightAware Transoceanic
04:31AM 49.1038 -23.9986 91° East 524 603 33,000  Level FlightAware Transoceanic
04:32AM 49.1017 -23.7761 91° East 524 603 33,000  Level FlightAware Transoceanic
04:33AM 49.0991 -23.5536 91° East 524 603 33,000  Level FlightAware Transoceanic
04:34AM 49.0961 -23.3312 91° East 524 603 33,000  Level FlightAware Transoceanic
04:35AM 49.0927 -23.1088 91° East 524 603 33,000  Level FlightAware Transoceanic
04:36AM 49.0888 -22.8864 92° East 524 603 33,000  Level FlightAware Transoceanic
04:37AM 49.0846 -22.6640 92° East 524 603 33,000  Level FlightAware Transoceanic
04:38AM 49.0798 -22.4417 92° East 524 603 33,000  Level FlightAware Transoceanic
04:39AM 49.0747 -22.2194 92° East 524 603 33,000  Level FlightAware Transoceanic
04:40AM 49.0692 -21.9972 92° East 524 603 33,000  Level FlightAware Transoceanic
04:41AM 49.0632 -21.7750 92° East 524 603 33,000  Level FlightAware Transoceanic
04:42AM 49.0568 -21.5529 93° East 524 603 33,000  Level FlightAware Transoceanic
04:43AM 49.0499 -21.3309 93° East 524 603 33,000  Level FlightAware Transoceanic
04:44AM 49.0427 -21.1089 93° East 524 603 33,000  Level FlightAware Transoceanic
04:45AM 49.0350 -20.8870 93° East 524 603 33,000  Level FlightAware Transoceanic
04:46AM 49.0269 -20.6651 93° East 524 603 33,000  Level FlightAware Transoceanic
04:47AM 49.0183 -20.4433 93° East 524 603 33,000  Level FlightAware Transoceanic
04:48AM 49.0094 -20.2216 94° East 524 603 33,000  Level FlightAware Transoceanic
04:49AM 49.0002 -20.0052 94° East  Level FlightAware Approximate
04:50AM 48.9905 -19.7889 94° East  Level FlightAware Approximate
04:51AM 48.9650 -19.8007 105° East  Level FlightAware Approximate
04:52AM 48.9278 -19.5917 105° East  Level FlightAware Approximate
04:53AM 48.8903 -19.3829 105° East  Level FlightAware Approximate
04:54AM 48.8524 -19.1745 105° East  Level FlightAware Approximate
04:55AM 48.8141 -18.9663 106° East  Level FlightAware Approximate
04:56AM 48.7755 -18.7585 106° East  Level FlightAware Approximate
04:57AM 48.7364 -18.5510 106° East  Level FlightAware Approximate
04:58AM 48.6970 -18.3439 106° East  Level FlightAware Approximate
04:59AM 48.6572 -18.1370 106° East  Level FlightAware Approximate
05:00AM 48.6171 -17.9305 106° East  Level FlightAware Approximate
05:01AM 48.5766 -17.7243 106° East  Level FlightAware Approximate
05:02AM 48.5357 -17.5185 107° East  Level FlightAware Approximate
05:03AM 48.4945 -17.3130 107° East  Level FlightAware Approximate
05:04AM 48.4529 -17.1078 107° East  Level FlightAware Approximate
05:05AM 48.4109 -16.9030 107° East  Level FlightAware Approximate
05:06AM 48.3685 -16.6985 107° East  Level FlightAware Approximate
05:07AM 48.3258 -16.4943 107° East  Level FlightAware Approximate
05:08AM 48.2828 -16.2905 108° East  Level FlightAware Approximate
05:09AM 48.2393 -16.0870 108° East  Level FlightAware Approximate
05:10AM 48.1956 -15.8839 108° East  Level FlightAware Approximate
05:11AM 48.1514 -15.6811 108° East  Level FlightAware Approximate
05:12AM 48.1069 -15.4787 108° East  Level FlightAware Approximate
05:13AM 48.0621 -15.2766 108° East  Level FlightAware Approximate
05:14AM 48.0169 -15.0749 108° East  Level FlightAware Approximate
05:15AM 47.9829 -14.8689 101° East  Level FlightAware Approximate
05:16AM 47.9553 -14.6605 101° East  Level FlightAware Approximate
05:17AM 47.9273 -14.4522 101° East  Level FlightAware Approximate
05:18AM 47.8990 -14.2443 101° East  Level FlightAware Approximate
05:19AM 47.8703 -14.0365 102° East  Level FlightAware Approximate
05:20AM 47.8412 -13.8290 102° East  Level FlightAware Approximate
05:21AM 47.8117 -13.6217 102° East  Level FlightAware Approximate
05:22AM 47.7819 -13.4147 102° East  Level FlightAware Approximate
05:23AM 47.7517 -13.2079 102° East  Level FlightAware Approximate
05:24AM 47.7211 -13.0013 102° East  Level FlightAware Approximate
05:25AM 47.6902 -12.7950 102° East  Level FlightAware Approximate
05:26AM 47.6589 -12.5889 103° East  Level FlightAware Approximate
05:27AM 47.6272 -12.3831 103° East  Level FlightAware Approximate
05:28AM 47.5951 -12.1775 103° East  Level FlightAware Approximate
05:29AM 47.5627 -11.9722 103° East  Level FlightAware Approximate
05:30AM 47.5299 -11.7671 103° East  Level FlightAware Approximate
05:31AM 47.4968 -11.5623 103° East  Level FlightAware Approximate
05:32AM 47.4633 -11.3577 104° East  Level FlightAware Approximate
05:33AM 47.4294 -11.1534 104° East  Level FlightAware Approximate
05:34AM 47.3952 -10.9494 104° East  Level FlightAware Approximate
05:35AM 47.3606 -10.7457 104° East  Level FlightAware Approximate
05:36AM 47.3256 -10.5422 104° East  Level FlightAware Approximate
05:37AM 47.2903 -10.3389 104° East  Level FlightAware Approximate
05:38AM 47.2546 -10.1360 104° East  Level FlightAware Approximate
05:39AM 47.2186 -9.9333 105° East  Level FlightAware Approximate
05:40AM 47.1822 -9.7309 105° East  Level FlightAware Approximate
05:41AM 47.1454 -9.5288 105° East  Level FlightAware Approximate
05:42AM 47.1083 -9.3270 105° East  Level FlightAware Approximate
05:43AM 47.0709 -9.1254 105° East  Level FlightAware Approximate
05:44AM 47.0331 -8.9241 105° East  Level FlightAware Approximate
05:45AM 47.0001 -8.7221 90° East  Level FlightAware Approximate
05:46AM 47.0005 -8.5136 90° East  Level FlightAware Approximate
05:47AM 47.0006 -8.3053 90° East  Level FlightAware Approximate
05:48AM 47.0003 -8.0971 90° East  Level FlightAware Approximate
05:49AM 46.9901 -7.8899 97° East  Level FlightAware Approximate
05:50AM 46.9712 -7.6836 98° East  Level FlightAware Approximate
05:51AM 46.9519 -7.4774 98° East  Level FlightAware Approximate
05:52AM 46.9323 -7.2714 98° East  Level FlightAware Approximate
05:53AM 46.9123 -7.0656 98° East  Level FlightAware Approximate
05:54AM 46.8919 -6.8599 98° East  Level FlightAware Approximate
05:55AM 46.8712 -6.6543 98° East  Level FlightAware Approximate
05:56AM 46.8501 -6.4490 98° East  Level FlightAware Approximate
05:57AM 46.8286 -6.2438 99° East  Level FlightAware Approximate
05:58AM 46.8068 -6.0387 99° East  Level FlightAware Approximate
05:59AM 46.7845 -5.8338 99° East  Level FlightAware Approximate
06:00AM 46.7620 -5.6291 99° East  Level FlightAware Approximate
06:01AM 46.7390 -5.4246 99° East  Level FlightAware Approximate
06:02AM 46.7157 -5.2202 99° East  Level FlightAware Approximate
06:03AM 46.6921 -5.0160 100° East  Level FlightAware Approximate
06:04AM 46.6680 -4.8120 100° East  Level FlightAware Approximate
06:05AM 46.6437 -4.6082 100° East  Level FlightAware Approximate
06:06AM 46.6189 -4.4046 100° East  Level FlightAware Approximate
06:07AM 46.5938 -4.2011 100° East  Level FlightAware Approximate
06:08AM 46.5683 -3.9979 100° East  Level FlightAware Approximate
06:09AM 46.5425 -3.7948 100° East  Level FlightAware Approximate
06:10AM 46.5163 -3.5920 101° East  Level FlightAware Approximate
06:11AM 46.4898 -3.3893 101° East  Level FlightAware Approximate
06:12AM 46.4628 -3.1868 101° East  Level FlightAware Approximate
06:13AM 46.4356 -2.9845 101° East  Level FlightAware Approximate
06:14AM 46.4080 -2.7825 101° East  Level FlightAware Approximate
06:15AM 46.3800 -2.5806 101° East  Level FlightAware Approximate
06:16AM 46.3517 -2.3790 101° East  Level FlightAware Approximate
06:17AM 46.3226 -2.1776 102° East  Level FlightAware Approximate
06:18AM 46.2926 -1.9767 102° East  Level FlightAware Approximate
06:19AM 46.2623 -1.7760 102° East  Level FlightAware Approximate
06:20AM 46.2316 -1.5755 102° East  Level FlightAware Approximate
06:21AM 46.2006 -1.3752 103° East  Level FlightAware Approximate
06:22AM 46.1692 -1.1752 103° East  Level FlightAware Approximate
06:23AM 46.1375 -0.9754 103° East  Level FlightAware Approximate
06:24AM 46.1054 -0.7758 103° East  Level FlightAware Approximate
06:25AM 46.0730 -0.5764 103° East  Level FlightAware Approximate
06:25AM 45.8310 -0.6100 103° East 506 582 33,000  Level FlightAware
06:26AM 45.8160 -0.4780 99° East 506 582 33,000  Level FlightAware
06:27AM 45.7990 -0.3290 99° East 506 582 33,000  Level FlightAware
06:27AM 45.7840 -0.1970 99° East 504 580 33,000  Level FlightAware
06:28AM 45.7670 -0.0490 99° East 505 581 33,000  Level FlightAware
06:29AM 45.7520 0.0830 99° East 505 581 33,000  Level FlightAware
06:29AM 45.7360 0.2110 100° East 507 583 33,000  Level FlightAware
06:30AM 45.7210 0.3440 99° East 507 583 33,000  Level FlightAware
06:31AM 45.7040 0.4790 100° East 507 583 33,000  Level FlightAware
06:32AM 45.6860 0.6280 100° East 506 582 33,000  Level FlightAware
06:32AM 45.6700 0.7560 100° East 507 583 33,000  Level FlightAware
06:33AM 45.6410 0.9910 100° East 507 583 33,000  Level FlightAware
06:35AM 45.6180 1.1990 99° East 507 583 33,000  Level FlightAware
06:36AM 45.5810 1.4570 101° East 510 587 33,000  Level FlightAware
06:37AM 45.5550 1.6520 101° East 510 587 33,000  Level FlightAware
06:37AM 45.5360 1.7970 101° East 508 585 33,000  Level FlightAware
06:38AM 45.5160 1.9450 101° East 510 587 33,000  Level FlightAware
06:39AM 45.4990 2.0710 101° East 511 588 33,000  Level FlightAware
06:39AM 45.4810 2.2090 100° East 510 587 33,000  Level FlightAware
06:40AM 45.4530 2.4070 101° East 512 589 33,000  Level FlightAware
06:42AM 45.4040 2.7510 101° East 514 592 33,000  Level FlightAware
06:43AM 45.3810 2.9130 101° East 513 590 33,000  Level FlightAware
06:44AM 45.3630 3.0390 101° East 515 593 33,000  Level FlightAware
06:44AM 45.3410 3.1880 102° East 516 594 33,000  Level FlightAware
06:45AM 45.3230 3.3140 101° East 514 592 33,000  Level FlightAware
06:46AM 45.3000 3.4690 102° East 516 594 33,000  Level FlightAware
06:46AM 45.2770 3.5980 104° East 522 601 33,000  Level FlightAware
06:47AM 45.2330 3.7360 114° Southeast 526 605 33,000  Level FlightAware
06:48AM 45.1820 3.8660 119° Southeast 529 609 33,000  Level FlightAware
06:49AM 45.1370 3.9770 120° Southeast 530 610 33,000  Level FlightAware
06:49AM 45.0830 4.1130 119° Southeast 529 609 33,000  Level FlightAware
06:50AM 45.0360 4.2300 120° Southeast 528 608 33,000  Level FlightAware
06:51AM 44.9830 4.3660 119° Southeast 528 608 33,000  Level FlightAware
06:51AM 44.9340 4.4890 119° Southeast 529 609 33,000  Level FlightAware
06:52AM 44.8790 4.6270 119° Southeast 528 608 33,000  Level FlightAware
06:53AM 44.8280 4.7500 120° Southeast 530 610 33,000  Level FlightAware
06:54AM 44.7770 4.8760 120° Southeast 532 612 33,000  Level FlightAware
06:54AM 44.7230 5.0080 120° Southeast 532 612 33,000  Level FlightAware
06:55AM 44.6740 5.1200 122° Southeast 535 616 33,000  Level FlightAware
06:56AM 44.6000 5.2760 124° Southeast 538 619 33,000  Level FlightAware
06:57AM 44.5350 5.4000 126° Southeast 538 619 33,000  Level FlightAware
06:57AM 44.4720 5.5220 126° Southeast 539 620 33,000  Level FlightAware
06:58AM 44.4160 5.6290 126° Southeast 540 621 33,000  Level FlightAware
06:59AM 44.3550 5.7480 126° Southeast 542 624 33,000  Level FlightAware
07:00AM 44.2240 6.0040 125° Southeast 539 620 33,000  Level FlightAware
07:00AM 44.1910 6.0680 126° Southeast 539 620 33,000  Level FlightAware
07:01AM 44.1230 6.1980 126° Southeast 541 623 33,000 720 Level FlightAware
07:02AM 44.0580 6.3220 126° Southeast 541 623 34,100 1,560 Climbing FlightAware
07:03AM 43.9980 6.4330 127° Southeast 538 619 35,200 1,560 Climbing FlightAware
07:03AM 43.9400 6.5450 126° Southeast 535 616 36,300 1,320 Climbing FlightAware
07:04AM 43.8790 6.6580 127° Southeast 536 617 37,000 480 Climbing FlightAware
07:05AM 43.8210 6.7680 126° Southeast 537 618 37,000  Level FlightAware
07:05AM 43.7610 6.8820 126° Southeast 535 616 37,000  Level FlightAware
07:06AM 43.7000 7.0100 123° Southeast 532 612 37,000  Level FlightAware
07:07AM 43.6450 7.1390 120° Southeast 531 611 37,000  Level FlightAware
07:08AM 43.5910 7.2630 121° Southeast 531 611 37,000  Level FlightAware
07:08AM 43.5460 7.3640 122° Southeast 531 611 37,000  Level FlightAware
07:09AM 43.4850 7.5000 122° Southeast 532 612 37,000  Level FlightAware
07:10AM 43.4370 7.6060 122° Southeast 532 612 37,000  Level FlightAware
07:10AM 43.3820 7.7300 121° Southeast 531 611 37,000  Level FlightAware
07:12AM 43.2830 7.9480 122° Southeast 532 612 37,000  Level FlightAware
07:12AM 43.2320 8.0590 122° Southeast 531 611 37,000  Level FlightAware
07:15AM 43.1228 8.4888 109° East  Level Estimated
07:16AM 43.0755 8.6726 109° East  Level Estimated
07:17AM 43.0280 8.8560 109° East  Level Estimated
07:18AM 42.9801 9.0392 110° East  Level Estimated
07:19AM 42.9319 9.2221 110° East  Level Estimated
07:20AM 42.8835 9.4047 110° East  Level Estimated
07:21AM 42.8347 9.5870 110° East  Level Estimated
07:22AM 42.7857 9.7690 110° East  Level Estimated
07:23AM 42.7364 9.9508 110° East  Level Estimated
07:24AM 42.6868 10.1322 110° East  Level Estimated
07:25AM 42.6369 10.3133 110° East  Level Estimated
07:26AM 42.5867 10.4942 111° Southeast  Level Estimated
07:27AM 42.5363 10.6748 111° Southeast  Level Estimated
07:28AM 42.4855 10.8551 111° Southeast  Level Estimated
07:29AM 42.4345 11.0350 111° Southeast  Level Estimated
07:30AM 42.3832 11.2147 111° Southeast  Level Estimated
07:31AM 42.3316 11.3941 111° Southeast  Level Estimated
07:32AM 42.2798 11.5732 111° Southeast  Level Estimated
07:33AM 42.2276 11.7520 111° Southeast  Level Estimated
07:34AM 42.1752 11.9305 112° Southeast  Level Estimated
07:35AM 42.1225 12.1088 112° Southeast  Level Estimated
07:36AM 42.0695 12.2867 112° Southeast  Level Estimated
07:37AM 42.0163 12.4643 112° Southeast  Level Estimated
07:38AM 41.9628 12.6416 112° Southeast  Level Estimated
07:39AM 41.9090 12.8187 112° Southeast  Level Estimated
07:40AM 41.8549 12.9954 112° Southeast  Level Estimated
07:41AM 41.8006 13.1718 112° Southeast  Level Estimated
07:42AM 41.7460 13.3479 113° Southeast  Level Estimated
07:43AM 41.6911 13.5238 113° Southeast  Level Estimated
07:44AM 41.6360 13.6993 113° Southeast  Level Estimated
07:45AM 41.5806 13.8745 113° Southeast  Level Estimated
07:46AM 41.5249 14.0494 113° Southeast  Level Estimated
07:47AM 41.4690 14.2241 113° Southeast  Level Estimated
07:48AM 41.4128 14.3984 113° Southeast  Level Estimated
07:49AM 41.3563 14.5724 113° Southeast  Level Estimated
07:50AM 41.2996 14.7461 113° Southeast  Level Estimated
07:51AM 41.2426 14.9195 114° Southeast  Level Estimated
07:52AM 41.1854 15.0927 114° Southeast  Level Estimated
07:53AM 41.1279 15.2655 114° Southeast  Level Estimated
07:54AM 41.0701 15.4380 114° Southeast  Level Estimated
07:55AM 41.0121 15.6102 114° Southeast  Level Estimated
07:56AM 40.9538 15.7821 114° Southeast  Level Estimated
07:57AM 40.8953 15.9537 114° Southeast  Level Estimated
07:58AM 40.8365 16.1249 114° Southeast  Level Estimated
07:59AM 40.7775 16.2959 114° Southeast  Level Estimated
08:00AM 40.7182 16.4666 115° Southeast  Level Estimated
08:01AM 40.6587 16.6370 115° Southeast  Level Estimated
08:02AM 40.5989 16.8071 115° Southeast  Level Estimated
08:03AM 40.5388 16.9768 115° Southeast  Level Estimated
08:04AM 40.4786 17.1463 115° Southeast  Level Estimated
08:05AM 40.4180 17.3155 115° Southeast  Level Estimated
08:06AM 40.3573 17.4843 115° Southeast  Level Estimated
08:07AM 40.2962 17.6528 115° Southeast  Level Estimated
08:08AM 40.2350 17.8211 115° Southeast  Level Estimated
08:09AM 40.1735 17.9890 116° Southeast  Level Estimated
08:10AM 40.1117 18.1567 116° Southeast  Level Estimated
08:11AM 40.0497 18.3240 116° Southeast  Level Estimated
08:12AM 39.9875 18.4910 116° Southeast  Level Estimated
08:13AM 39.9250 18.6577 116° Southeast  Level Estimated
08:14AM 39.8623 18.8242 116° Southeast  Level Estimated
08:15AM 39.7994 18.9903 116° Southeast  Level Estimated
08:16AM 39.7362 19.1561 116° Southeast  Level Estimated
08:17AM 39.6727 19.3216 116° Southeast  Level Estimated
08:18AM 39.6091 19.4868 117° Southeast  Level Estimated
08:19AM 39.5452 19.6517 117° Southeast  Level Estimated
08:20AM 39.4811 19.8163 117° Southeast  Level Estimated
08:21AM 39.4167 19.9806 117° Southeast  Level Estimated
08:22AM 39.3522 20.1446 117° Southeast  Level Estimated
08:23AM 39.2873 20.3082 117° Southeast  Level Estimated
08:24AM 39.2223 20.4716 117° Southeast  Level Estimated
08:25AM 39.1570 20.6347 117° Southeast  Level Estimated
08:26AM 39.0915 20.7974 117° Southeast  Level Estimated
08:27AM 39.0258 20.9599 117° Southeast  Level Estimated
08:28AM 38.9599 21.1221 118° Southeast  Level Estimated
08:29AM 38.8937 21.2840 118° Southeast  Level Estimated
08:30AM 38.8273 21.4455 118° Southeast  Level Estimated
08:31AM 38.7607 21.6068 118° Southeast  Level Estimated
08:32AM 38.6939 21.7677 118° Southeast  Level Estimated
08:33AM 38.6268 21.9284 118° Southeast  Level Estimated
08:34AM 38.5595 22.0888 118° Southeast  Level Estimated
08:35AM 38.4920 22.2488 118° Southeast  Level Estimated
08:36AM 38.4243 22.4086 118° Southeast  Level Estimated
08:37AM 38.3564 22.5680 118° Southeast  Level Estimated
08:38AM 38.2882 22.7272 119° Southeast  Level Estimated
08:39AM 38.2199 22.8860 119° Southeast  Level Estimated
08:40AM 38.1513 23.0446 119° Southeast  Level Estimated
08:41AM 38.0825 23.2029 119° Southeast  Level Estimated
08:42AM 38.0135 23.3608 119° Southeast  Level Estimated
08:43AM 37.9443 23.5185 119° Southeast  Level Estimated
08:44AM 37.8749 23.6759 119° Southeast  Level Estimated
08:45AM 37.8053 23.8329 119° Southeast  Level Estimated
08:46AM 37.7354 23.9897 119° Southeast  Level Estimated
08:47AM 37.6654 24.1462 119° Southeast  Level Estimated
08:48AM 37.5951 24.3024 120° Southeast  Level Estimated
08:49AM 37.5247 24.4583 120° Southeast  Level Estimated
08:50AM 37.4540 24.6139 120° Southeast  Level Estimated
08:51AM 37.3832 24.7692 120° Southeast  Level Estimated
08:52AM 37.3121 24.9242 120° Southeast  Level Estimated
08:53AM 37.2408 25.0789 120° Southeast  Level Estimated
08:54AM 37.1693 25.2333 120° Southeast  Level Estimated
08:55AM 37.0977 25.3874 120° Southeast  Level Estimated
08:56AM 37.0258 25.5413 120° Southeast  Level Estimated
08:57AM 36.9538 25.6948 120° Southeast  Level Estimated
08:58AM 36.8815 25.8481 120° Southeast  Level Estimated
08:59AM 36.8090 26.0011 121° Southeast  Level Estimated
09:00AM 36.7364 26.1537 121° Southeast  Level Estimated
09:01AM 36.6635 26.3061 121° Southeast  Level Estimated
09:02AM 36.5905 26.4582 121° Southeast  Level Estimated
09:03AM 36.5173 26.6101 121° Southeast  Level Estimated
09:04AM 36.4438 26.7616 121° Southeast  Level Estimated
09:05AM 36.3702 26.9128 121° Southeast  Level Estimated
09:06AM 36.2964 27.0638 121° Southeast  Level Estimated
09:07AM 36.2224 27.2144 121° Southeast  Level Estimated
09:08AM 36.1482 27.3648 121° Southeast  Level Estimated
09:09AM 36.0738 27.5149 121° Southeast  Level Estimated
09:10AM 35.9993 27.6647 122° Southeast  Level Estimated
09:11AM 35.9245 27.8142 122° Southeast  Level Estimated
09:12AM 35.8496 27.9635 122° Southeast  Level Estimated
09:13AM 35.7745 28.1124 122° Southeast  Level Estimated
09:14AM 35.6992 28.2611 122° Southeast  Level Estimated
09:15AM 35.6237 28.4095 122° Southeast  Level Estimated
09:16AM 35.5480 28.5576 122° Southeast  Level Estimated
09:17AM 35.4722 28.7055 122° Southeast  Level Estimated
09:18AM 35.3962 28.8530 122° Southeast  Level Estimated
09:19AM 35.3200 29.0003 122° Southeast  Level Estimated
09:20AM 35.2436 29.1473 122° Southeast  Level Estimated
09:21AM 35.1670 29.2940 123° Southeast  Level Estimated
09:22AM 35.0903 29.4405 123° Southeast  Level Estimated
09:23AM 35.0134 29.5867 123° Southeast  Level Estimated
09:24AM 34.9363 29.7326 123° Southeast  Level Estimated
09:25AM 34.8590 29.8782 123° Southeast  Level Estimated
09:26AM 34.7816 30.0236 123° Southeast  Level Estimated
09:27AM 34.7040 30.1686 123° Southeast  Level Estimated
09:28AM 34.6262 30.3134 123° Southeast  Level Estimated
09:29AM 34.5483 30.4580 123° Southeast  Level Estimated
09:30AM 34.4701 30.6022 123° Southeast  Level Estimated
09:31AM 34.3920 30.7460 123° Southeast  Level Estimated
09:32AM 34.3137 30.8895 123° Southeast  Level Estimated
09:33AM 34.2352 31.0327 124° Southeast  Level Estimated
09:34AM 34.1565 31.1756 124° Southeast  Level Estimated
09:35AM 34.0777 31.3183 124° Southeast  Level Estimated
09:36AM 33.9987 31.4607 124° Southeast  Level Estimated
09:37AM 33.9196 31.6029 124° Southeast  Level Estimated
09:38AM 33.8402 31.7448 124° Southeast  Level Estimated
09:39AM 33.7608 31.8864 124° Southeast  Level Estimated
09:40AM 33.6811 32.0277 124° Southeast  Level Estimated
09:41AM 33.6013 32.1688 124° Southeast  Level Estimated
09:42AM 33.5214 32.3097 124° Southeast  Level Estimated
09:43AM 33.4413 32.4503 124° Southeast  Level Estimated
09:44AM 33.3610 32.5906 124° Southeast  Level Estimated
09:45AM 33.2806 32.7307 124° Southeast  Level Estimated
09:46AM 33.2000 32.8704 125° Southeast  Level Estimated
09:47AM 33.1192 33.0100 125° Southeast  Level Estimated
09:48AM 33.0383 33.1493 125° Southeast  Level Estimated
09:49AM 32.9573 33.2883 125° Southeast  Level Estimated
09:50AM 32.8761 33.4271 125° Southeast  Level Estimated
09:51AM 32.7947 33.5656 125° Southeast  Level Estimated
09:52AM 32.7132 33.7039 125° Southeast  Level Estimated
09:53AM 32.6315 33.8419 125° Southeast  Level Estimated
09:54AM 32.5497 33.9796 125° Southeast  Level Estimated
09:55AM 32.4678 34.1171 125° Southeast  Level Estimated
09:56AM 32.3857 34.2544 125° Southeast  Level Estimated
09:57AM 32.3034 34.3914 125° Southeast  Level Estimated
09:58AM 32.2210 34.5282 125° Southeast  Level Estimated
09:59AM 32.1384 34.6647 126° Southeast  Level Estimated
10:00AM 32.0557 34.8009 126° Southeast  Level Estimated
10:01AM 32.0095 34.8769 126° Southeast  Level Estimated
10:02AM 32.0095 34.8769 270° West  Level Estimated
10:03AM 32.0095 34.8769 270° West  Level Estimated
10:04AM 32.0095 34.8769 270° West  Level Estimated
10:05AM 32.0095 34.8769 270° West  Level Estimated
10:06AM 32.0095 34.8769 270° West  Level Estimated